createdAt,value
2017-11-29T00:00:37.357Z,47.27
2017-11-29T00:02:40.750Z,47.28
2017-11-29T00:04:44.037Z,47.27
2017-11-29T00:06:47.431Z,47.28
2017-11-29T00:08:50.824Z,47.28
2017-11-29T00:10:54.211Z,47.29
2017-11-29T00:12:57.530Z,47.28
2017-11-29T00:15:00.838Z,47.28
2017-11-29T00:17:04.164Z,47.28
2017-11-29T00:19:07.534Z,47.28
2017-11-29T00:21:10.865Z,47.29
2017-11-29T00:23:14.138Z,47.29
2017-11-29T00:25:17.531Z,47.29
2017-11-29T00:27:20.881Z,47.29
2017-11-29T00:29:24.186Z,47.28
2017-11-29T00:31:27.621Z,47.28
2017-11-29T00:33:30.918Z,47.29
2017-11-29T00:35:34.248Z,47.29
2017-11-29T00:37:37.633Z,47.29
2017-11-29T00:39:40.942Z,47.30
2017-11-29T00:41:44.373Z,47.30
2017-11-29T00:43:47.768Z,47.29
2017-11-29T00:45:51.080Z,47.30
2017-11-29T00:47:54.433Z,47.29
2017-11-29T00:49:57.777Z,47.29
2017-11-29T00:52:01.232Z,47.31
2017-11-29T00:54:04.533Z,47.29
2017-11-29T00:56:07.853Z,47.29
2017-11-29T00:58:11.145Z,47.30
2017-11-29T01:00:14.443Z,47.30
2017-11-29T01:02:17.822Z,47.30
2017-11-29T01:04:21.130Z,47.30
2017-11-29T01:06:24.423Z,47.30
2017-11-29T01:08:27.745Z,47.31
2017-11-29T01:10:31.041Z,47.31
2017-11-29T01:12:34.341Z,47.31
2017-11-29T01:14:37.742Z,47.31
2017-11-29T01:16:41.113Z,47.30
2017-11-29T01:18:45.225Z,47.30
2017-11-29T01:20:48.624Z,47.30
2017-11-29T01:22:51.898Z,47.30
2017-11-29T01:24:55.296Z,47.31
2017-11-29T01:26:58.648Z,47.30
2017-11-29T01:29:01.933Z,47.31
2017-11-29T01:31:05.234Z,47.31
2017-11-29T01:33:08.550Z,47.31
2017-11-29T01:35:12.138Z,47.31
2017-11-29T01:37:15.439Z,47.31
2017-11-29T01:39:18.769Z,47.31
2017-11-29T01:41:22.061Z,47.31
2017-11-29T01:43:25.358Z,47.31
2017-11-29T01:45:28.705Z,47.31
2017-11-29T01:47:31.984Z,47.31
2017-11-29T01:49:35.585Z,47.31
2017-11-29T01:51:38.908Z,47.31
2017-11-29T01:53:42.276Z,47.31
2017-11-29T01:55:45.586Z,47.31
2017-11-29T01:57:48.965Z,47.30
2017-11-29T01:59:52.262Z,47.31
2017-11-29T02:01:55.560Z,47.30
2017-11-29T02:03:58.979Z,47.30
2017-11-29T02:06:03.047Z,47.30
2017-11-29T02:08:06.369Z,47.31
2017-11-29T02:10:09.761Z,47.30
2017-11-29T02:12:13.202Z,47.30
2017-11-29T02:14:16.596Z,47.30
2017-11-29T02:16:19.914Z,47.30
2017-11-29T02:18:23.315Z,47.30
2017-11-29T02:20:26.622Z,47.30
2017-11-29T02:22:30.060Z,47.30
2017-11-29T02:24:33.342Z,47.30
2017-11-29T02:26:36.693Z,47.31
2017-11-29T02:28:40.113Z,47.30
2017-11-29T02:30:43.512Z,47.30
2017-11-29T02:32:46.813Z,47.30
2017-11-29T02:34:50.138Z,47.30
2017-11-29T02:36:53.542Z,47.30
2017-11-29T02:38:56.900Z,47.30
2017-11-29T02:43:37.382Z,47.30
2017-11-29T02:45:40.698Z,47.31
2017-11-29T02:47:44.039Z,47.32
2017-11-29T02:49:47.483Z,47.31
2017-11-29T02:51:50.826Z,47.31
2017-11-29T02:53:54.154Z,47.31
2017-11-29T02:55:57.449Z,47.29
2017-11-29T02:58:00.845Z,47.30
2017-11-29T03:00:04.187Z,47.29
2017-11-29T03:02:07.486Z,47.29
2017-11-29T03:04:10.819Z,47.27
2017-11-29T03:06:14.133Z,47.29
2017-11-29T03:08:17.548Z,47.27
2017-11-29T03:10:21.519Z,47.28
2017-11-29T03:12:24.889Z,47.27
2017-11-29T03:14:28.295Z,47.27
2017-11-29T03:16:31.629Z,47.27
2017-11-29T03:18:34.939Z,47.26
2017-11-29T03:20:38.227Z,47.27
2017-11-29T03:22:41.598Z,47.27
2017-11-29T03:24:44.912Z,47.28
2017-11-29T03:26:48.221Z,47.26
2017-11-29T03:28:51.569Z,47.26
2017-11-29T03:30:54.968Z,47.26
2017-11-29T03:32:58.262Z,47.26
2017-11-29T03:35:01.579Z,47.27
2017-11-29T03:37:05.033Z,47.27
2017-11-29T03:39:08.425Z,47.26
2017-11-29T03:41:11.699Z,47.26
2017-11-29T03:43:15.041Z,47.27
2017-11-29T03:45:18.432Z,47.26
2017-11-29T03:47:21.781Z,47.26
2017-11-29T03:49:25.103Z,47.26
2017-11-29T03:51:28.543Z,47.26
2017-11-29T03:53:31.858Z,47.25
2017-11-29T03:55:35.252Z,47.25
2017-11-29T03:57:38.643Z,47.24
2017-11-29T03:59:41.935Z,47.24
2017-11-29T04:01:45.259Z,47.24
2017-11-29T04:03:48.612Z,47.24
2017-11-29T04:05:51.900Z,47.24
2017-11-29T04:07:55.450Z,47.24
2017-11-29T04:09:58.794Z,47.24
2017-11-29T04:12:02.163Z,47.24
2017-11-29T04:14:05.574Z,47.24
2017-11-29T04:16:08.964Z,47.24
2017-11-29T04:18:12.249Z,47.24
2017-11-29T04:20:15.590Z,47.24
2017-11-29T04:22:18.926Z,47.24
2017-11-29T04:24:22.274Z,47.23
2017-11-29T04:26:25.822Z,47.24
2017-11-29T04:28:29.143Z,47.24
2017-11-29T04:30:32.443Z,47.24
2017-11-29T04:32:35.898Z,47.24
2017-11-29T04:34:39.176Z,47.23
2017-11-29T04:36:42.556Z,47.23
2017-11-29T04:38:45.900Z,47.24
2017-11-29T04:40:49.258Z,47.24
2017-11-29T04:42:52.558Z,47.24
2017-11-29T04:44:55.940Z,47.24
2017-11-29T04:46:59.242Z,47.24
2017-11-29T04:49:02.549Z,47.24
2017-11-29T04:51:05.912Z,47.24
2017-11-29T04:53:09.404Z,47.23
2017-11-29T04:55:12.730Z,47.23
2017-11-29T04:57:16.122Z,47.23
2017-11-29T04:59:19.417Z,47.23
2017-11-29T05:01:22.706Z,47.22
2017-11-29T05:03:26.159Z,47.22
2017-11-29T05:05:29.445Z,47.22
2017-11-29T05:07:32.739Z,47.22
2017-11-29T05:09:36.127Z,47.21
2017-11-29T05:11:39.405Z,47.23
2017-11-29T05:13:42.766Z,47.21
2017-11-29T05:15:46.139Z,47.21
2017-11-29T05:17:49.636Z,47.21
2017-11-29T05:19:52.952Z,47.21
2017-11-29T05:21:56.256Z,47.23
2017-11-29T05:23:59.565Z,47.23
2017-11-29T05:26:02.869Z,47.21
2017-11-29T05:28:06.301Z,47.21
2017-11-29T05:30:09.652Z,47.21
2017-11-29T05:32:12.967Z,47.21
2017-11-29T05:34:16.282Z,47.21
2017-11-29T05:36:19.665Z,47.21
2017-11-29T05:38:23.018Z,47.22
2017-11-29T05:40:26.444Z,47.22
2017-11-29T05:42:29.818Z,47.22
2017-11-29T05:44:33.115Z,47.22
2017-11-29T05:46:36.563Z,47.22
2017-11-29T05:48:39.861Z,47.22
2017-11-29T05:50:43.156Z,47.21
2017-11-29T05:52:46.597Z,47.22
2017-11-29T05:54:50.001Z,47.21
2017-11-29T05:56:53.460Z,47.22
2017-11-29T05:58:56.919Z,47.21
2017-11-29T06:01:00.316Z,47.20
2017-11-29T06:03:03.630Z,47.20
2017-11-29T06:05:06.967Z,47.20
2017-11-29T06:07:10.253Z,47.19
2017-11-29T06:09:13.690Z,47.19
2017-11-29T06:11:17.061Z,47.19
2017-11-29T06:13:20.458Z,47.18
2017-11-29T06:15:23.767Z,47.19
2017-11-29T06:17:27.087Z,47.19
2017-11-29T06:19:30.468Z,47.19
2017-11-29T06:21:33.758Z,47.19
2017-11-29T06:23:37.095Z,47.20
2017-11-29T06:25:40.506Z,47.20
2017-11-29T06:27:43.831Z,47.20
2017-11-29T06:29:47.188Z,47.20
2017-11-29T06:31:50.545Z,47.20
2017-11-29T06:33:53.845Z,47.20
2017-11-29T06:35:57.212Z,47.20
2017-11-29T06:38:00.545Z,47.21
2017-11-29T06:40:03.831Z,47.20
2017-11-29T06:42:07.159Z,47.20
2017-11-29T06:44:10.614Z,47.20
2017-11-29T06:46:13.918Z,47.19
2017-11-29T06:48:17.393Z,47.19
2017-11-29T06:50:20.677Z,47.19
2017-11-29T06:52:24.106Z,47.19
2017-11-29T06:54:27.465Z,47.19
2017-11-29T06:56:30.905Z,47.18
2017-11-29T06:58:34.262Z,47.17
2017-11-29T07:00:37.649Z,47.18
2017-11-29T07:02:41.300Z,47.17
2017-11-29T07:04:44.601Z,47.17
2017-11-29T07:06:47.980Z,47.17
2017-11-29T07:08:51.311Z,47.16
2017-11-29T07:10:54.612Z,47.16
2017-11-29T07:12:57.947Z,47.16
2017-11-29T07:15:01.283Z,47.14
2017-11-29T07:17:04.619Z,47.13
2017-11-29T07:19:08.075Z,47.13
2017-11-29T07:21:11.366Z,47.13
2017-11-29T07:23:14.686Z,47.13
2017-11-29T07:25:17.999Z,47.11
2017-11-29T07:27:21.308Z,47.11
2017-11-29T07:29:24.647Z,47.11
2017-11-29T07:31:28.020Z,47.11
2017-11-29T07:33:31.501Z,47.10
2017-11-29T07:35:34.777Z,47.17
2017-11-29T07:37:38.130Z,47.05
2017-11-29T07:39:41.539Z,47.13
2017-11-29T07:41:44.843Z,47.21
2017-11-29T07:43:48.258Z,47.28
2017-11-29T07:45:52.047Z,47.27
2017-11-29T07:47:55.507Z,47.00
2017-11-29T07:49:58.945Z,47.06
2017-11-29T07:52:02.270Z,47.05
2017-11-29T07:54:05.586Z,46.95
2017-11-29T07:56:08.934Z,46.86
2017-11-29T07:58:12.352Z,46.80
2017-11-29T08:00:15.719Z,46.76
2017-11-29T08:02:19.045Z,46.77
2017-11-29T08:04:22.610Z,46.68
2017-11-29T08:06:25.914Z,46.58
2017-11-29T08:08:29.265Z,46.54
2017-11-29T08:10:32.579Z,46.61
2017-11-29T08:12:35.947Z,46.67
2017-11-29T08:14:39.310Z,46.56
2017-11-29T08:16:42.677Z,46.52
2017-11-29T08:18:46.127Z,46.45
2017-11-29T08:20:49.657Z,46.43
2017-11-29T08:22:53.062Z,46.44
2017-11-29T08:24:56.438Z,46.45
2017-11-29T08:27:00.109Z,46.24
2017-11-29T08:29:03.490Z,44.12
2017-11-29T08:31:06.774Z,40.36
2017-11-29T08:33:10.110Z,38.35
2017-11-29T08:35:13.434Z,36.24
2017-11-29T08:37:16.726Z,36.00
2017-11-29T08:39:20.070Z,36.23
2017-11-29T08:41:23.441Z,35.29
2017-11-29T08:43:26.749Z,35.80
2017-11-29T08:45:30.083Z,38.03
2017-11-29T08:47:33.507Z,39.26
2017-11-29T08:49:36.791Z,39.77
2017-11-29T08:51:40.137Z,40.20
2017-11-29T08:53:43.526Z,40.99
2017-11-29T08:55:47.847Z,41.29
2017-11-29T08:57:51.284Z,41.55
2017-11-29T08:59:54.777Z,41.90
2017-11-29T09:01:58.126Z,42.09
2017-11-29T09:04:01.454Z,42.16
2017-11-29T09:06:04.753Z,42.22
2017-11-29T09:08:08.138Z,42.37
2017-11-29T09:10:11.476Z,42.48
2017-11-29T09:12:14.779Z,42.58
2017-11-29T09:14:18.208Z,42.66
2017-11-29T09:16:21.620Z,42.75
2017-11-29T09:18:24.950Z,42.79
2017-11-29T09:20:28.280Z,42.88
2017-11-29T09:22:31.642Z,42.93
2017-11-29T09:24:35.099Z,43.04
2017-11-29T09:26:38.377Z,43.08
2017-11-29T09:28:41.733Z,43.19
2017-11-29T09:30:45.050Z,43.24
2017-11-29T09:32:48.363Z,43.26
2017-11-29T09:34:51.674Z,43.34
2017-11-29T09:36:54.977Z,43.41
2017-11-29T09:38:58.390Z,43.45
2017-11-29T09:41:02.693Z,43.50
2017-11-29T09:43:06.070Z,43.56
2017-11-29T09:45:09.445Z,43.60
2017-11-29T09:47:12.967Z,43.58
2017-11-29T09:49:16.274Z,43.64
2017-11-29T09:51:19.673Z,43.66
2017-11-29T09:53:22.992Z,43.69
2017-11-29T09:55:26.365Z,43.71
2017-11-29T09:57:29.665Z,43.75
2017-11-29T09:59:33.015Z,43.76
2017-11-29T10:01:36.344Z,43.79
2017-11-29T10:03:39.666Z,43.80
2017-11-29T10:05:43.031Z,43.80
2017-11-29T10:07:46.348Z,43.82
2017-11-29T10:09:49.814Z,43.85
2017-11-29T10:11:53.282Z,43.84
2017-11-29T10:13:56.675Z,43.85
2017-11-29T10:16:01.525Z,43.87
2017-11-29T10:18:04.933Z,43.86
2017-11-29T10:20:08.282Z,43.90
2017-11-29T10:22:11.587Z,43.92
2017-11-29T10:24:14.928Z,43.94
2017-11-29T10:26:18.250Z,43.91
2017-11-29T10:28:21.656Z,43.89
2017-11-29T10:30:25.056Z,43.88
2017-11-29T10:32:28.428Z,43.88
2017-11-29T10:34:32.771Z,43.84
2017-11-29T10:36:36.177Z,43.86
2017-11-29T10:38:39.457Z,43.85
2017-11-29T10:40:42.789Z,43.84
2017-11-29T10:42:46.121Z,43.82
2017-11-29T10:44:49.444Z,43.80
2017-11-29T10:46:52.913Z,43.81
2017-11-29T10:48:56.389Z,43.81
2017-11-29T10:50:59.753Z,43.89
2017-11-29T10:53:03.165Z,43.87
2017-11-29T10:55:06.481Z,43.87
2017-11-29T10:57:09.965Z,43.86
2017-11-29T10:59:13.245Z,43.93
2017-11-29T11:01:16.605Z,43.93
2017-11-29T11:03:20.085Z,43.94
2017-11-29T11:05:23.434Z,43.96
2017-11-29T11:07:26.778Z,43.97
2017-11-29T11:09:30.114Z,43.95
2017-11-29T11:11:33.530Z,44.01
2017-11-29T11:13:36.874Z,44.01
2017-11-29T11:15:40.166Z,43.99
2017-11-29T11:17:43.597Z,44.00
2017-11-29T11:19:46.938Z,44.03
2017-11-29T11:21:50.314Z,44.02
2017-11-29T11:23:53.711Z,43.99
2017-11-29T11:25:57.088Z,44.10
2017-11-29T11:28:01.203Z,44.09
2017-11-29T11:30:04.629Z,43.84
2017-11-29T11:32:07.969Z,43.95
2017-11-29T11:34:11.340Z,43.92
2017-11-29T11:36:14.653Z,43.84
2017-11-29T11:38:18.096Z,43.90
2017-11-29T11:40:21.533Z,43.92
2017-11-29T11:42:24.827Z,43.92
2017-11-29T11:44:28.174Z,43.95
2017-11-29T11:46:31.528Z,43.92
2017-11-29T11:48:34.989Z,43.93
2017-11-29T11:50:38.339Z,43.92
2017-11-29T11:52:41.733Z,43.99
2017-11-29T11:54:45.032Z,43.98
2017-11-29T11:56:48.467Z,43.96
2017-11-29T11:58:51.763Z,43.97
2017-11-29T12:00:55.104Z,44.00
2017-11-29T12:02:58.459Z,44.03
2017-11-29T12:05:01.917Z,44.00
2017-11-29T12:07:05.246Z,43.99
2017-11-29T12:09:08.764Z,43.95
2017-11-29T12:11:12.128Z,43.92
2017-11-29T12:13:15.510Z,43.92
2017-11-29T12:15:18.827Z,43.92
2017-11-29T12:17:22.215Z,43.92
2017-11-29T12:19:25.536Z,43.92
2017-11-29T12:21:28.838Z,43.91
2017-11-29T12:23:32.199Z,43.92
2017-11-29T12:25:35.531Z,43.95
2017-11-29T12:27:38.906Z,43.96
2017-11-29T12:29:42.272Z,43.98
2017-11-29T12:31:45.664Z,44.01
2017-11-29T12:33:49.009Z,44.04
2017-11-29T12:35:52.344Z,44.06
2017-11-29T12:37:55.671Z,44.06
2017-11-29T12:39:58.986Z,44.09
2017-11-29T12:42:02.381Z,44.11
2017-11-29T12:44:05.758Z,44.16
2017-11-29T12:46:09.066Z,44.25
2017-11-29T12:48:24.474Z,44.55
2017-11-29T12:53:07.140Z,45.12
2017-11-29T12:55:10.451Z,45.11
2017-11-29T12:57:13.822Z,45.27
2017-11-29T12:59:17.170Z,45.25
2017-11-29T13:01:20.467Z,45.64
2017-11-29T13:03:23.852Z,45.80
2017-11-29T13:05:28.833Z,46.23
2017-11-29T13:07:32.093Z,46.74
2017-11-29T13:09:35.398Z,46.98
2017-11-29T13:11:38.852Z,47.15
2017-11-29T13:13:42.147Z,47.09
2017-11-29T13:15:45.472Z,47.18
2017-11-29T13:17:48.801Z,47.18
2017-11-29T13:19:52.152Z,47.12
2017-11-29T13:21:55.451Z,46.99
2017-11-29T13:23:58.893Z,47.06
2017-11-29T13:26:02.234Z,47.22
2017-11-29T13:28:05.869Z,47.34
2017-11-29T13:30:09.197Z,47.38
2017-11-29T13:32:13.439Z,47.37
2017-11-29T13:34:16.742Z,47.27
2017-11-29T13:36:20.213Z,47.15
2017-11-29T13:38:23.764Z,47.12
2017-11-29T13:40:27.190Z,47.14
2017-11-29T13:42:30.690Z,47.09
2017-11-29T13:44:33.978Z,47.09
2017-11-29T13:46:37.383Z,47.03
2017-11-29T13:48:40.710Z,47.01
2017-11-29T13:50:44.055Z,47.02
2017-11-29T13:52:47.455Z,47.03
2017-11-29T13:54:50.812Z,47.03
2017-11-29T13:56:54.213Z,47.04
2017-11-29T13:58:57.648Z,47.08
2017-11-29T14:01:00.977Z,47.12
2017-11-29T14:03:04.350Z,46.99
2017-11-29T14:05:07.708Z,47.06
2017-11-29T14:07:11.077Z,46.96
2017-11-29T14:09:14.391Z,46.96
2017-11-29T14:11:17.705Z,46.96
2017-11-29T14:13:21.319Z,46.89
2017-11-29T14:15:24.646Z,46.87
2017-11-29T14:17:28.086Z,46.83
2017-11-29T14:19:31.700Z,46.88
2017-11-29T14:21:35.067Z,46.84
2017-11-29T14:23:38.382Z,46.80
2017-11-29T14:25:41.699Z,46.79
2017-11-29T14:27:45.031Z,46.80
2017-11-29T14:29:48.456Z,46.79
2017-11-29T14:31:51.948Z,46.33
2017-11-29T14:33:55.250Z,45.84
2017-11-29T14:35:58.560Z,45.37
2017-11-29T14:38:01.916Z,44.49
2017-11-29T14:40:05.271Z,44.66
2017-11-29T14:42:08.598Z,44.55
2017-11-29T14:44:11.926Z,44.40
2017-11-29T14:46:15.385Z,44.47
2017-11-29T14:48:18.669Z,44.61
2017-11-29T14:50:22.022Z,44.76
2017-11-29T14:52:25.330Z,44.79
2017-11-29T14:54:28.674Z,44.86
2017-11-29T14:56:32.047Z,44.91
2017-11-29T14:58:35.431Z,44.92
2017-11-29T15:00:38.844Z,44.96
2017-11-29T15:02:42.155Z,45.01
2017-11-29T15:04:45.486Z,45.01
2017-11-29T15:06:48.797Z,45.05
2017-11-29T15:08:52.253Z,45.10
2017-11-29T15:10:55.566Z,45.14
2017-11-29T15:12:58.898Z,45.15
2017-11-29T15:15:02.364Z,45.15
2017-11-29T15:17:05.956Z,45.15
2017-11-29T15:19:09.289Z,45.17
2017-11-29T15:21:12.702Z,45.21
2017-11-29T15:23:16.002Z,45.21
2017-11-29T15:25:19.400Z,45.22
2017-11-29T15:27:22.737Z,45.24
2017-11-29T15:29:26.101Z,45.25
2017-11-29T15:31:29.373Z,45.26
2017-11-29T15:33:32.702Z,45.26
2017-11-29T15:35:36.012Z,45.30
2017-11-29T15:37:39.344Z,45.33
2017-11-29T15:39:42.666Z,45.33
2017-11-29T15:41:45.982Z,45.33
2017-11-29T15:43:49.401Z,45.35
2017-11-29T15:45:52.722Z,45.38
2017-11-29T15:47:56.154Z,45.38
2017-11-29T15:49:59.615Z,45.37
2017-11-29T15:52:02.939Z,45.39
2017-11-29T15:54:06.334Z,45.40
2017-11-29T15:56:09.781Z,45.40
2017-11-29T15:58:13.108Z,45.41
2017-11-29T16:00:16.427Z,45.44
2017-11-29T16:02:19.854Z,45.46
2017-11-29T16:04:23.192Z,45.48
2017-11-29T16:06:26.491Z,45.52
2017-11-29T16:08:29.798Z,45.52
2017-11-29T16:10:33.248Z,45.54
2017-11-29T16:12:36.542Z,45.53
2017-11-29T16:14:39.837Z,45.59
2017-11-29T16:16:43.166Z,45.56
2017-11-29T16:18:46.499Z,45.54
2017-11-29T16:20:49.788Z,45.60
2017-11-29T16:22:53.532Z,45.61
2017-11-29T16:24:56.958Z,45.61
2017-11-29T16:27:00.304Z,45.62
2017-11-29T16:29:03.658Z,45.61
2017-11-29T16:31:07.031Z,45.61
2017-11-29T16:33:10.314Z,45.62
2017-11-29T16:35:13.700Z,45.61
2017-11-29T16:37:17.028Z,45.61
2017-11-29T16:39:20.339Z,45.61
2017-11-29T16:41:23.660Z,45.61
2017-11-29T16:43:26.993Z,45.61
2017-11-29T16:45:30.282Z,45.61
2017-11-29T16:47:33.663Z,45.62
2017-11-29T16:49:36.978Z,45.63
2017-11-29T16:51:40.294Z,45.64
2017-11-29T16:53:43.664Z,45.66
2017-11-29T16:55:46.974Z,45.67
2017-11-29T16:57:50.309Z,45.69
2017-11-29T16:59:53.651Z,45.71
2017-11-29T17:01:57.034Z,45.73
2017-11-29T17:04:00.338Z,45.73
2017-11-29T17:06:03.747Z,45.75
2017-11-29T17:08:07.119Z,45.76
2017-11-29T17:10:11.314Z,45.79
2017-11-29T17:12:14.867Z,45.80
2017-11-29T17:14:18.947Z,45.83
2017-11-29T17:16:22.358Z,45.84
2017-11-29T17:18:25.751Z,45.85
2017-11-29T17:20:29.085Z,45.88
2017-11-29T17:22:32.394Z,45.89
2017-11-29T17:24:35.726Z,45.91
2017-11-29T17:26:39.153Z,45.92
2017-11-29T17:28:42.454Z,45.93
2017-11-29T17:30:46.075Z,45.95
2017-11-29T17:32:49.365Z,45.96
2017-11-29T17:34:52.687Z,45.97
2017-11-29T17:36:56.035Z,45.97
2017-11-29T17:38:59.310Z,45.99
2017-11-29T17:41:02.697Z,46.00
2017-11-29T17:43:06.058Z,46.01
2017-11-29T17:45:09.368Z,46.04
2017-11-29T17:47:12.760Z,46.05
2017-11-29T17:49:16.132Z,46.07
2017-11-29T17:51:20.748Z,46.09
2017-11-29T17:53:24.075Z,46.10
2017-11-29T17:55:27.426Z,46.12
2017-11-29T17:57:30.734Z,46.12
2017-11-29T17:59:34.104Z,46.13
2017-11-29T18:01:37.458Z,46.14
2017-11-29T18:03:40.782Z,46.16
2017-11-29T18:05:44.129Z,46.16
2017-11-29T18:07:47.509Z,46.18
2017-11-29T18:09:50.912Z,46.19
2017-11-29T18:11:54.213Z,46.20
2017-11-29T18:13:57.710Z,46.21
2017-11-29T18:16:01.009Z,46.22
2017-11-29T18:18:04.341Z,46.23
2017-11-29T18:20:07.813Z,46.24
2017-11-29T18:22:11.219Z,46.25
2017-11-29T18:24:14.604Z,46.25
2017-11-29T18:26:17.943Z,46.26
2017-11-29T18:28:21.272Z,46.29
2017-11-29T18:30:24.679Z,46.29
2017-11-29T18:32:27.997Z,46.30
2017-11-29T18:34:31.285Z,46.31
2017-11-29T18:36:34.646Z,46.32
2017-11-29T18:38:37.972Z,46.32
2017-11-29T18:40:41.328Z,46.34
2017-11-29T18:42:44.628Z,46.34
2017-11-29T18:44:48.053Z,46.33
2017-11-29T18:46:51.451Z,46.35
2017-11-29T18:48:54.832Z,46.34
2017-11-29T18:50:58.144Z,46.36
2017-11-29T18:53:01.482Z,46.37
2017-11-29T18:55:04.758Z,46.37
2017-11-29T18:57:08.082Z,46.38
2017-11-29T18:59:11.371Z,46.39
2017-11-29T19:01:14.861Z,46.39
2017-11-29T19:03:18.171Z,46.41
2017-11-29T19:05:21.466Z,46.41
2017-11-29T19:07:24.757Z,46.42
2017-11-29T19:09:28.138Z,46.42
2017-11-29T19:11:31.461Z,46.43
2017-11-29T19:13:34.830Z,46.43
2017-11-29T19:15:38.273Z,46.43
2017-11-29T19:17:41.563Z,46.44
2017-11-29T19:19:44.870Z,46.44
2017-11-29T19:21:48.198Z,46.45
2017-11-29T19:23:51.499Z,46.46
2017-11-29T19:25:54.830Z,46.46
2017-11-29T19:27:58.164Z,46.47
2017-11-29T19:30:01.474Z,46.47
2017-11-29T19:32:04.793Z,46.48
2017-11-29T19:34:08.121Z,46.47
2017-11-29T19:36:11.396Z,46.47
2017-11-29T19:38:14.716Z,46.48
2017-11-29T19:40:18.154Z,46.47
2017-11-29T19:42:22.402Z,46.48
2017-11-29T19:44:25.834Z,46.48
2017-11-29T19:46:29.559Z,46.48
2017-11-29T19:48:33.167Z,46.49
2017-11-29T19:50:36.560Z,46.49
2017-11-29T19:52:39.884Z,46.50
2017-11-29T19:54:43.186Z,46.49
2017-11-29T19:56:46.724Z,46.50
2017-11-29T19:58:51.633Z,46.50
2017-11-29T20:00:55.278Z,46.51
2017-11-29T20:02:58.638Z,46.52
2017-11-29T20:05:01.962Z,46.52
2017-11-29T20:07:05.273Z,46.53
2017-11-29T20:09:08.594Z,46.54
2017-11-29T20:11:11.946Z,46.53
2017-11-29T20:13:15.296Z,46.53
2017-11-29T20:15:18.687Z,46.52
2017-11-29T20:17:22.190Z,46.54
2017-11-29T20:19:25.495Z,46.52
2017-11-29T20:21:28.779Z,46.52
2017-11-29T20:23:32.184Z,46.53
2017-11-29T20:25:35.538Z,46.54
2017-11-29T20:27:38.838Z,46.54
2017-11-29T20:29:42.199Z,46.54
2017-11-29T20:31:45.491Z,46.54
2017-11-29T20:33:48.806Z,46.54
2017-11-29T20:35:52.160Z,46.54
2017-11-29T20:37:55.466Z,46.55
2017-11-29T20:39:58.833Z,46.55
2017-11-29T20:42:02.171Z,46.55
2017-11-29T20:44:05.470Z,46.56
2017-11-29T20:46:08.812Z,46.56
2017-11-29T20:48:12.176Z,46.55
2017-11-29T20:50:15.528Z,46.57
2017-11-29T20:52:19.527Z,46.56
2017-11-29T20:54:22.897Z,46.56
2017-11-29T20:56:26.218Z,46.56
2017-11-29T20:58:29.601Z,46.57
2017-11-29T21:00:32.959Z,46.57
2017-11-29T21:02:36.259Z,46.57
2017-11-29T21:04:39.660Z,46.56
2017-11-29T21:06:42.992Z,46.55
2017-11-29T21:08:46.443Z,46.56
2017-11-29T21:10:50.570Z,46.57
2017-11-29T21:12:53.870Z,46.57
2017-11-29T21:14:57.212Z,46.57
2017-11-29T21:17:00.563Z,46.57
2017-11-29T21:19:04.136Z,46.57
2017-11-29T21:21:07.525Z,46.57
2017-11-29T21:23:10.919Z,46.57
2017-11-29T21:25:14.238Z,46.58
2017-11-29T21:27:17.560Z,46.58
2017-11-29T21:29:20.925Z,46.58
2017-11-29T21:31:24.327Z,46.59
2017-11-29T21:33:27.630Z,46.59
2017-11-29T21:35:30.945Z,46.58
2017-11-29T21:37:34.349Z,46.57
2017-11-29T21:39:37.677Z,46.57
2017-11-29T21:41:41.140Z,46.57
2017-11-29T21:43:44.542Z,46.58
2017-11-29T21:45:47.858Z,46.58
2017-11-29T21:47:51.153Z,46.60
2017-11-29T21:49:54.474Z,46.60
2017-11-29T21:51:57.765Z,46.61
2017-11-29T21:54:01.102Z,46.60
2017-11-29T21:56:04.424Z,46.61
2017-11-29T21:58:07.734Z,46.61
2017-11-29T22:00:11.038Z,46.61
2017-11-29T22:02:14.395Z,46.62
2017-11-29T22:04:17.707Z,46.63
2017-11-29T22:06:21.016Z,46.63
2017-11-29T22:08:24.354Z,46.64
2017-11-29T22:10:27.765Z,46.64
2017-11-29T22:12:31.193Z,46.64
2017-11-29T22:14:34.521Z,46.66
2017-11-29T22:16:37.950Z,46.66
2017-11-29T22:18:41.357Z,46.67
2017-11-29T22:20:44.855Z,46.68
2017-11-29T22:22:48.172Z,46.68
2017-11-29T22:24:51.474Z,46.69
2017-11-29T22:26:54.795Z,46.68
2017-11-29T22:28:58.099Z,46.69
2017-11-29T22:31:01.429Z,46.66
2017-11-29T22:33:04.844Z,46.69
2017-11-29T22:35:08.246Z,46.69
2017-11-29T22:37:11.653Z,46.70
2017-11-29T22:39:15.099Z,46.70
2017-11-29T22:41:18.378Z,46.70
2017-11-29T22:43:21.686Z,46.70
2017-11-29T22:45:25.097Z,46.70
2017-11-29T22:47:28.417Z,46.71
2017-11-29T22:49:31.807Z,46.70
2017-11-29T22:51:35.105Z,46.71
2017-11-29T22:53:38.438Z,46.69
2017-11-29T22:55:41.755Z,46.71
2017-11-29T22:57:45.180Z,46.69
2017-11-29T22:59:48.505Z,46.69
2017-11-29T23:01:51.813Z,46.72
2017-11-29T23:03:55.124Z,46.72
2017-11-29T23:05:58.431Z,46.73
2017-11-29T23:08:01.804Z,46.74
2017-11-29T23:10:05.241Z,46.73
2017-11-29T23:12:08.541Z,46.72
2017-11-29T23:14:11.945Z,46.72
2017-11-29T23:16:15.315Z,46.74
2017-11-29T23:18:18.601Z,46.74
2017-11-29T23:20:21.890Z,46.75
2017-11-29T23:22:25.992Z,46.73
2017-11-29T23:24:29.340Z,46.75
2017-11-29T23:26:32.645Z,46.75
2017-11-29T23:28:36.006Z,46.75
2017-11-29T23:30:39.301Z,46.75
2017-11-29T23:32:42.606Z,46.75
2017-11-29T23:34:45.915Z,46.74
2017-11-29T23:36:49.210Z,46.75
2017-11-29T23:38:52.638Z,46.74
2017-11-29T23:40:55.944Z,46.75
2017-11-29T23:42:59.237Z,46.74
2017-11-29T23:45:02.540Z,46.74
2017-11-29T23:47:05.985Z,46.74
2017-11-29T23:49:09.289Z,46.73
2017-11-29T23:51:12.582Z,46.74
2017-11-29T23:53:15.902Z,46.74
2017-11-29T23:55:19.205Z,46.74
2017-11-29T23:57:22.514Z,46.74
2017-11-29T23:59:25.910Z,46.76
